Comanche, Montana
Current Conditions -  °F | °C
As of 10:53 AM on Saturday 20 Dec 2014 (Local Time) from KBIL Reporting Station
Broken Clouds Broken Clouds  
Wind Chill: 25°   Ceiling: 20000
Heat Index: 34°   Visibility: 10mi
Dew Point: 22°   Wind: 14mph
Humidity: 61%   Direction: 230°SW
Pressure: 29.92"   Gusts: NA
Location:  46.053°N, 108.734°W
Report Text: KBIL 201753Z 23012KT 10SM FEW080 SCT150 BKN200 01/M06 A2992 RMK AO2 SLP154 T00111056 10011 21011 50000
Loading
Personal Weather Stations






























Interactive Weather Map New forecast layout! Learn more

10-Day Weather Forecast

Advertisements
Track Severe Weather on mobile